Time;durP1;ratioP1;P1;durP2;ratioP2;P2;SDS_P1;SDS_P2;PMS_P1;PMS_P2;Temp;Humidity;BMP_temperature;BMP_pressure;BME280_temperature;BME280_humidity;BME280_pressure;Samples;Min_cycle;Max_cycle;Signal;HPM_P1;HPM_P2
2021/10/07 00:01:44;;;;;;;2.03;0.80;;;21.30;56.30;;;;;;5115403;28;20037;-57
2021/10/07 00:04:09;;;;;;;4.05;0.90;;;21.30;56.30;;;;;;5115538;28;20016;-57
2021/10/07 00:06:35;;;;;;;1.95;0.80;;;21.30;56.30;;;;;;5115274;28;20058;-57
2021/10/07 00:09:03;;;;;;;2.30;1.00;;;21.30;56.40;;;;;;5115447;28;20352;-56
2021/10/07 00:11:29;;;;;;;2.17;0.80;;;21.30;56.40;;;;;;5115116;28;20032;-59
2021/10/07 00:13:54;;;;;;;2.08;0.90;;;21.30;56.40;;;;;;5096720;28;20156;-59
2021/10/07 00:16:20;;;;;;;2.63;0.70;;;21.30;56.30;;;;;;5115055;28;20097;-59
2021/10/07 00:18:48;;;;;;;3.95;0.90;;;21.30;56.40;;;;;;5114916;28;20085;-56
2021/10/07 00:21:18;;;;;;;2.25;0.80;;;21.30;56.40;;;;;;5114875;28;20466;-59
2021/10/07 00:24:05;;;;;;;2.92;1.00;;;21.30;56.40;;;;;;5115227;28;20104;-59
2021/10/07 00:26:31;;;;;;;2.60;0.80;;;21.30;56.40;;;;;;5114713;28;20398;-58
2021/10/07 00:29:03;;;;;;;3.17;0.75;;;21.30;56.30;;;;;;5115045;28;20020;-59
2021/10/07 00:31:33;;;;;;;1.75;0.80;;;21.20;56.40;;;;;;5114696;28;20039;-58
2021/10/07 00:34:16;;;;;;;2.10;0.82;;;21.20;56.40;;;;;;5114735;28;20048;-58
2021/10/07 00:39:10;;;;;;;2.92;1.10;;;21.20;56.40;;;;;;5114456;28;20403;-58
2021/10/07 00:41:41;;;;;;;2.30;0.90;;;21.20;56.40;;;;;;5114531;28;20115;-56
2021/10/07 00:44:09;;;;;;;2.67;0.95;;;21.20;56.40;;;;;;5114685;28;20035;-58
2021/10/07 00:46:46;;;;;;;3.38;0.90;;;21.30;56.40;;;;;;5114883;28;20030;-60
2021/10/07 00:49:12;;;;;;;2.75;0.95;;;21.20;56.40;;;;;;5114425;28;20023;-60
2021/10/07 00:51:37;;;;;;;2.05;0.80;;;21.20;56.40;;;;;;5096101;28;20043;-57
2021/10/07 00:54:03;;;;;;;2.70;0.90;;;21.20;56.40;;;;;;5114554;28;20470;-58
2021/10/07 00:56:29;;;;;;;3.13;1.13;;;21.20;56.40;;;;;;5114478;28;20462;-56
2021/10/07 00:58:54;;;;;;;1.95;1.00;;;21.20;56.40;;;;;;5114234;28;20095;-55
2021/10/07 01:01:20;;;;;;;3.92;1.02;;;21.20;56.40;;;;;;5114351;28;20027;-58
2021/10/07 01:03:45;;;;;;;2.58;1.00;;;21.30;56.30;;;;;;5113208;28;20054;-54
2021/10/07 01:06:11;;;;;;;2.50;0.73;;;21.20;56.30;;;;;;5113993;28;20046;-59
2021/10/07 01:08:37;;;;;;;2.65;0.82;;;21.20;56.40;;;;;;5114187;28;20035;-58
2021/10/07 01:11:02;;;;;;;3.25;0.90;;;21.20;56.40;;;;;;5113832;28;20074;-55
2021/10/07 01:13:28;;;;;;;1.50;0.68;;;21.20;56.30;;;;;;5114170;28;20068;-56
2021/10/07 01:16:00;;;;;;;2.03;0.80;;;21.20;56.30;;;;;;5114153;28;20028;-58
2021/10/07 01:18:26;;;;;;;2.33;0.80;;;21.20;56.30;;;;;;5113812;28;20027;-57
2021/10/07 01:20:51;;;;;;;2.40;0.80;;;21.20;56.40;;;;;;5114134;28;20097;-56
2021/10/07 01:23:17;;;;;;;3.35;1.15;;;21.20;56.30;;;;;;5113957;28;20015;-58
2021/10/07 01:25:43;;;;;;;4.68;1.30;;;21.20;56.30;;;;;;5113741;28;20027;-58
2021/10/07 01:28:08;;;;;;;2.17;0.90;;;21.20;56.40;;;;;;5113685;28;20031;-59
2021/10/07 01:30:34;;;;;;;1.40;0.63;;;21.20;56.40;;;;;;5113546;28;20510;-56
2021/10/07 01:32:59;;;;;;;2.95;0.70;;;21.20;56.40;;;;;;5113585;28;20039;-59
2021/10/07 01:35:25;;;;;;;1.92;0.80;;;21.20;56.40;;;;;;5113784;28;20028;-58
2021/10/07 01:37:51;;;;;;;1.55;0.60;;;21.20;56.40;;;;;;5113590;28;20020;-60
2021/10/07 01:40:17;;;;;;;3.40;0.98;;;21.20;56.30;;;;;;5113349;28;20096;-60
2021/10/07 01:42:42;;;;;;;2.95;0.80;;;21.20;56.30;;;;;;5113534;28;20515;-60
2021/10/07 01:45:10;;;;;;;3.50;1.30;;;21.20;56.30;;;;;;5113584;28;20480;-59
2021/10/07 01:47:35;;;;;;;1.80;0.60;;;21.20;56.40;;;;;;5113327;28;20151;-59
2021/10/07 01:50:01;;;;;;;2.42;0.85;;;21.20;56.40;;;;;;5113428;28;20054;-58
2021/10/07 01:52:27;;;;;;;1.38;0.57;;;21.20;56.30;;;;;;5113565;28;20024;-58
2021/10/07 01:54:53;;;;;;;2.53;0.82;;;21.10;56.30;;;;;;5113350;28;20033;-58
2021/10/07 01:57:18;;;;;;;3.47;0.80;;;21.20;56.30;;;;;;5113392;28;20028;-58
2021/10/07 01:59:44;;;;;;;2.03;0.77;;;21.20;56.30;;;;;;5095078;28;20073;-58
2021/10/07 02:02:09;;;;;;;3.47;0.98;;;21.10;56.30;;;;;;5113538;28;20024;-58
2021/10/07 02:04:35;;;;;;;7.43;0.93;;;21.10;56.30;;;;;;5113553;28;20426;-59
2021/10/07 02:07:00;;;;;;;2.42;0.80;;;21.10;56.30;;;;;;5113198;28;20482;-60
2021/10/07 02:09:26;;;;;;;2.35;0.90;;;21.20;56.30;;;;;;5113299;28;20047;-60
2021/10/07 02:11:51;;;;;;;2.45;0.73;;;21.10;56.30;;;;;;5113525;28;20501;-58
2021/10/07 02:14:17;;;;;;;3.38;0.85;;;21.10;56.30;;;;;;5113222;28;20024;-59
2021/10/07 02:16:42;;;;;;;4.55;0.95;;;21.10;56.30;;;;;;5117305;28;20027;-57
2021/10/07 02:19:08;;;;;;;3.78;0.88;;;21.10;56.20;;;;;;5117311;28;20032;-58
2021/10/07 02:21:33;;;;;;;2.92;0.65;;;21.10;56.30;;;;;;5117310;28;20047;-58
2021/10/07 02:23:59;;;;;;;2.53;0.70;;;21.10;56.20;;;;;;5117446;28;20023;-61
2021/10/07 02:26:24;;;;;;;1.73;0.80;;;21.10;56.30;;;;;;5117194;28;20019;-58
2021/10/07 02:28:50;;;;;;;4.72;1.38;;;21.10;56.20;;;;;;5117123;28;20156;-58
2021/10/07 02:31:16;;;;;;;2.80;1.05;;;21.10;56.20;;;;;;5116973;28;20046;-59
2021/10/07 02:33:41;;;;;;;1.50;0.80;;;21.10;56.20;;;;;;5117119;28;20026;-56
2021/10/07 02:36:07;;;;;;;1.85;0.85;;;21.10;56.20;;;;;;5116999;28;20031;-58
2021/10/07 02:38:33;;;;;;;3.05;0.85;;;21.10;56.20;;;;;;5116969;28;20055;-58
2021/10/07 02:40:58;;;;;;;1.67;0.80;;;21.10;56.20;;;;;;5117015;28;20070;-57
2021/10/07 02:43:24;;;;;;;2.78;0.90;;;21.10;56.20;;;;;;5116806;28;20123;-57
2021/10/07 02:45:50;;;;;;;2.25;0.80;;;21.10;56.20;;;;;;5098656;28;20019;-58
2021/10/07 02:48:15;;;;;;;2.13;0.70;;;21.10;56.20;;;;;;5116821;28;20383;-59
2021/10/07 02:50:41;;;;;;;2.17;0.80;;;21.10;56.20;;;;;;5098442;28;20493;-58
2021/10/07 02:53:06;;;;;;;2.90;0.77;;;21.10;56.20;;;;;;5116719;28;20024;-60
2021/10/07 02:55:32;;;;;;;3.40;1.17;;;21.10;56.20;;;;;;5116597;28;20062;-57
2021/10/07 02:57:57;;;;;;;2.83;0.80;;;21.10;56.10;;;;;;5116655;28;20024;-58
2021/10/07 03:00:23;;;;;;;2.42;0.80;;;21.10;56.10;;;;;;5116633;28;20474;-57
2021/10/07 03:02:49;;;;;;;2.35;0.75;;;21.10;56.20;;;;;;5116530;28;20028;-55
2021/10/07 03:05:14;;;;;;;1.98;0.77;;;21.10;56.10;;;;;;5098231;28;20031;-58
2021/10/07 03:07:40;;;;;;;3.30;0.90;;;21.10;56.20;;;;;;5116437;28;20084;-59
2021/10/07 03:10:07;;;;;;;3.78;1.00;;;21.10;56.20;;;;;;5116534;28;20474;-57
2021/10/07 03:12:33;;;;;;;3.80;1.10;;;21.10;56.10;;;;;;5116291;28;20038;-57
2021/10/07 03:14:59;;;;;;;2.17;0.77;;;21.10;56.10;;;;;;5116294;28;20094;-60
2021/10/07 03:17:24;;;;;;;2.58;1.08;;;21.10;56.10;;;;;;5116479;28;20027;-60
2021/10/07 03:19:50;;;;;;;2.20;0.90;;;21.10;56.10;;;;;;5098025;28;20031;-58
2021/10/07 03:22:16;;;;;;;2.35;0.93;;;21.10;56.10;;;;;;5116235;28;20088;-58
2021/10/07 03:24:42;;;;;;;3.80;0.98;;;21.10;56.10;;;;;;5116114;28;20030;-59
2021/10/07 03:27:08;;;;;;;2.10;0.85;;;21.10;56.10;;;;;;5115115;28;20458;-60
2021/10/07 03:29:33;;;;;;;3.63;0.80;;;21.10;56.10;;;;;;5116170;28;20031;-59
2021/10/07 03:31:59;;;;;;;2.58;0.88;;;21.10;56.10;;;;;;5115881;28;20539;-60
2021/10/07 03:34:25;;;;;;;1.23;0.77;;;21.10;56.00;;;;;;5115942;28;20371;-59
2021/10/07 03:36:51;;;;;;;3.13;0.80;;;21.10;56.00;;;;;;5116092;28;20463;-58
2021/10/07 03:39:17;;;;;;;1.02;0.47;;;21.10;56.00;;;;;;5115707;28;20115;-58
2021/10/07 03:41:43;;;;;;;2.53;1.02;;;21.10;56.00;;;;;;5115920;28;20171;-58
2021/10/07 03:44:08;;;;;;;1.92;0.80;;;21.00;56.00;;;;;;5115617;28;20490;-59
2021/10/07 03:46:34;;;;;;;1.45;0.60;;;21.10;56.10;;;;;;5097368;28;20058;-58
2021/10/07 03:49:00;;;;;;;3.10;0.90;;;21.10;56.10;;;;;;5097396;28;20115;-58
2021/10/07 03:51:25;;;;;;;1.98;0.70;;;21.00;56.10;;;;;;5115485;28;20119;-59
2021/10/07 03:53:51;;;;;;;1.73;0.70;;;21.10;56.00;;;;;;5115456;28;20023;-57
2021/10/07 03:56:16;;;;;;;1.63;0.70;;;21.00;56.00;;;;;;5115500;28;20019;-59
2021/10/07 03:58:42;;;;;;;1.98;0.82;;;21.10;56.00;;;;;;5115439;28;20144;-59
2021/10/07 04:01:08;;;;;;;1.88;0.80;;;21.10;56.10;;;;;;5115553;28;20020;-59
2021/10/07 04:03:33;;;;;;;2.28;0.93;;;21.00;56.10;;;;;;5115532;28;20026;-59
2021/10/07 04:05:59;;;;;;;2.35;0.90;;;21.10;56.00;;;;;;5115355;28;20023;-57
2021/10/07 04:08:25;;;;;;;1.75;0.80;;;21.10;56.00;;;;;;5115256;28;20031;-58
2021/10/07 04:10:50;;;;;;;2.60;0.90;;;21.00;56.00;;;;;;5115119;28;20032;-59
2021/10/07 04:13:21;;;;;;;1.42;0.65;;;21.10;56.00;;;;;;5115093;28;20020;-58
2021/10/07 04:15:47;;;;;;;1.77;0.65;;;21.10;56.00;;;;;;5114954;28;20031;-57
2021/10/07 04:18:16;;;;;;;3.65;0.88;;;21.10;55.90;;;;;;5114905;28;20027;-57
2021/10/07 04:20:43;;;;;;;1.75;0.80;;;21.10;55.90;;;;;;5114947;28;20510;-58
2021/10/07 04:23:10;;;;;;;2.58;0.90;;;21.10;55.90;;;;;;5114862;28;20024;-59
2021/10/07 04:25:35;;;;;;;1.52;0.50;;;21.10;55.90;;;;;;5114901;28;20111;-59
2021/10/07 04:28:04;;;;;;;2.42;0.80;;;21.10;55.80;;;;;;5114791;28;20064;-60
2021/10/07 04:30:30;;;;;;;2.28;0.80;;;21.10;55.80;;;;;;5114722;28;20118;-60
2021/10/07 04:32:56;;;;;;;1.75;0.70;;;21.10;55.80;;;;;;5114718;28;20055;-60
2021/10/07 04:35:21;;;;;;;2.22;0.70;;;21.20;55.80;;;;;;5114853;28;20028;-58
2021/10/07 04:37:47;;;;;;;1.33;0.60;;;21.20;55.80;;;;;;5114592;28;20161;-58
2021/10/07 04:40:12;;;;;;;1.95;0.70;;;21.20;55.70;;;;;;5096203;28;20040;-58
2021/10/07 04:42:38;;;;;;;1.40;0.60;;;21.20;55.70;;;;;;5114397;28;20555;-60
2021/10/07 04:45:04;;;;;;;2.45;0.95;;;21.20;55.70;;;;;;5114565;28;20024;-59
2021/10/07 04:47:30;;;;;;;2.35;0.90;;;21.20;55.70;;;;;;5095988;28;20474;-57
2021/10/07 04:49:56;;;;;;;1.23;0.68;;;21.20;55.70;;;;;;5096057;28;20426;-58
2021/10/07 04:52:21;;;;;;;2.50;1.00;;;21.20;55.70;;;;;;5114417;28;20028;-59
2021/10/07 04:54:47;;;;;;;1.52;0.80;;;21.20;55.70;;;;;;5114347;28;20031;-58
2021/10/07 04:57:13;;;;;;;2.35;0.88;;;21.20;55.60;;;;;;5114212;28;20034;-57
2021/10/07 04:59:38;;;;;;;2.15;0.75;;;21.20;55.60;;;;;;5114527;28;20111;-60
2021/10/07 05:02:04;;;;;;;3.70;0.93;;;21.20;55.60;;;;;;5114252;28;20034;-59
2021/10/07 05:04:30;;;;;;;1.00;0.60;;;21.20;55.60;;;;;;5114402;28;20016;-58
2021/10/07 05:06:55;;;;;;;1.63;0.80;;;21.20;55.60;;;;;;5096180;28;20081;-59
2021/10/07 05:09:21;;;;;;;1.70;0.70;;;21.20;55.50;;;;;;5095754;28;20015;-59
2021/10/07 05:11:46;;;;;;;0.80;0.60;;;21.20;55.60;;;;;;5114124;28;20042;-58
2021/10/07 05:14:12;;;;;;;2.17;0.90;;;21.30;55.50;;;;;;5095800;28;20352;-59
2021/10/07 05:16:37;;;;;;;1.70;0.70;;;21.20;55.60;;;;;;5095601;28;20114;-57
2021/10/07 05:19:03;;;;;;;3.05;0.98;;;21.20;55.50;;;;;;5113782;28;20019;-56
2021/10/07 05:21:28;;;;;;;2.13;0.80;;;21.20;55.60;;;;;;5113853;28;20031;-56
2021/10/07 05:23:54;;;;;;;1.88;0.90;;;21.20;55.50;;;;;;5113705;28;20375;-59
2021/10/07 05:26:19;;;;;;;2.35;0.90;;;21.30;55.50;;;;;;5113620;28;20015;-59
2021/10/07 05:28:45;;;;;;;1.50;0.75;;;21.30;55.50;;;;;;5113973;28;20494;-57
2021/10/07 05:31:11;;;;;;;0.77;0.50;;;21.20;55.50;;;;;;5113596;28;20031;-57
2021/10/07 05:33:37;;;;;;;1.98;0.77;;;21.30;55.50;;;;;;5113602;28;20015;-57
2021/10/07 05:36:03;;;;;;;2.25;0.80;;;21.30;55.40;;;;;;5113817;28;20034;-59
2021/10/07 05:38:29;;;;;;;2.00;0.70;;;21.30;55.50;;;;;;5113235;28;20528;-57
2021/10/07 05:40:55;;;;;;;1.90;0.70;;;21.30;55.40;;;;;;5113575;28;20028;-58
2021/10/07 05:43:20;;;;;;;1.00;0.60;;;21.30;55.40;;;;;;5113461;28;20080;-57
2021/10/07 05:45:46;;;;;;;1.83;0.80;;;21.30;55.30;;;;;;5113685;28;20028;-57
2021/10/07 05:48:11;;;;;;;1.17;0.45;;;21.30;55.40;;;;;;5113594;28;20062;-57
2021/10/07 05:50:37;;;;;;;1.63;0.80;;;21.30;55.40;;;;;;5112820;28;20031;-58
2021/10/07 05:53:03;;;;;;;2.58;1.00;;;21.30;55.40;;;;;;5113802;28;20019;-58
2021/10/07 05:55:29;;;;;;;1.80;0.80;;;21.30;55.30;;;;;;5113498;28;20436;-56
2021/10/07 05:57:54;;;;;;;1.60;0.70;;;21.30;55.30;;;;;;5113450;28;20382;-57
2021/10/07 06:00:22;;;;;;;2.35;0.60;;;21.30;55.30;;;;;;5095094;28;20467;-58
2021/10/07 06:02:47;;;;;;;1.70;0.70;;;21.30;55.30;;;;;;5113221;28;20057;-56
2021/10/07 06:05:13;;;;;;;1.45;0.60;;;21.30;55.30;;;;;;5113169;28;20105;-59
2021/10/07 06:07:39;;;;;;;1.25;0.60;;;21.30;55.30;;;;;;5113187;28;20039;-59
2021/10/07 06:10:06;;;;;;;1.63;0.80;;;21.30;55.30;;;;;;5113076;28;20105;-59
2021/10/07 06:12:35;;;;;;;1.90;0.70;;;21.30;55.30;;;;;;5095279;28;20027;-57
2021/10/07 06:15:01;;;;;;;3.00;1.15;;;21.30;55.30;;;;;;5110658;28;20024;-59
2021/10/07 06:17:32;;;;;;;10.60;7.07;;;21.30;55.40;;;;;;5095971;28;20031;-59
2021/10/07 06:20:06;;;;;;;9.43;6.13;;;20.80;53.80;;;;;;5112981;28;20504;-60
2021/10/07 06:22:32;;;;;;;;;;;20.50;54.10;;;;;;5113468;28;20028;-59
2021/10/07 06:24:58;;;;;;;9.57;4.97;;;20.50;54.30;;;;;;5112961;28;19904;-60
2021/10/07 06:27:24;;;;;;;7.25;4.60;;;20.70;54.30;;;;;;5096810;28;20478;-59
2021/10/07 06:29:50;;;;;;;4.65;2.25;;;21.00;54.30;;;;;;5127302;28;20035;-59
2021/10/07 06:32:16;;;;;;;3.22;1.70;;;21.10;54.50;;;;;;5133590;28;20109;-60
2021/10/07 06:34:42;;;;;;;3.22;1.48;;;21.20;55.10;;;;;;5133468;28;20027;-60
2021/10/07 06:37:08;;;;;;;2.30;0.90;;;21.30;54.80;;;;;;5124313;28;20427;-60
2021/10/07 06:39:33;;;;;;;3.20;1.35;;;21.40;54.60;;;;;;5133288;28;20069;-59
2021/10/07 06:41:59;;;;;;;3.15;1.38;;;21.40;54.70;;;;;;5114878;28;20457;-57
2021/10/07 06:44:25;;;;;;;3.08;1.30;;;21.50;54.80;;;;;;5118545;28;20018;-60
2021/10/07 06:46:50;;;;;;;2.97;1.30;;;21.50;54.60;;;;;;5099353;28;20019;-59
2021/10/07 06:49:16;;;;;;;3.35;1.35;;;21.50;54.60;;;;;;5133068;28;20489;-59
2021/10/07 06:51:42;;;;;;;3.53;1.38;;;21.60;54.60;;;;;;5094479;28;20031;-60
2021/10/07 06:54:07;;;;;;;3.03;1.20;;;21.60;54.30;;;;;;5123514;28;20115;-60
2021/10/07 06:56:33;;;;;;;2.80;1.35;;;21.70;54.30;;;;;;5095415;28;20032;-60
2021/10/07 06:58:58;;;;;;;3.92;1.40;;;21.70;54.30;;;;;;5113715;28;20352;-59
2021/10/07 07:01:25;;;;;;;4.00;1.73;;;21.80;54.20;;;;;;5097493;28;20490;-59
2021/10/07 07:03:53;;;;;;;5.85;1.50;;;21.80;54.20;;;;;;5116452;27;20024;-59
2021/10/07 07:06:20;;;;;;;3.15;1.40;;;21.80;54.20;;;;;;5105220;27;20156;-60
2021/10/07 07:08:46;;;;;;;3.67;1.38;;;21.90;54.10;;;;;;5123963;27;20019;-59
2021/10/07 07:11:11;;;;;;;3.03;1.15;;;21.90;54.10;;;;;;5103534;28;20035;-59
2021/10/07 07:13:38;;;;;;;3.13;1.15;;;21.90;54.10;;;;;;5116086;27;20032;-59
2021/10/07 07:16:04;;;;;;;3.28;1.38;;;22.00;54.00;;;;;;5105798;27;20106;-61
2021/10/07 07:18:29;;;;;;;2.50;1.08;;;22.00;53.90;;;;;;5111171;28;20020;-59
2021/10/07 07:20:55;;;;;;;4.45;1.65;;;22.00;54.10;;;;;;5119224;27;20534;-59
2021/10/07 07:23:20;;;;;;;3.03;1.58;;;22.10;54.00;;;;;;5136463;27;20467;-59
2021/10/07 07:25:47;;;;;;;2.72;1.40;;;22.10;54.00;;;;;;5116241;27;20071;-60
2021/10/07 07:28:12;;;;;;;3.58;1.40;;;22.10;53.90;;;;;;5121013;27;20026;-59
2021/10/07 07:30:39;;;;;;;3.80;1.60;;;22.10;53.90;;;;;;5119131;27;20390;-60
2021/10/07 07:33:04;;;;;;;3.22;1.27;;;22.20;54.00;;;;;;5121141;27;20072;-59
2021/10/07 07:35:31;;;;;;;2.67;1.20;;;22.20;53.90;;;;;;5121343;27;20031;-58
2021/10/07 07:37:58;;;;;;;2.92;1.40;;;22.20;53.90;;;;;;5119329;27;20385;-58
2021/10/07 07:40:24;;;;;;;2.83;1.50;;;22.20;53.90;;;;;;5129595;27;20027;-59
2021/10/07 07:42:50;;;;;;;3.50;1.40;;;22.20;53.80;;;;;;5116019;27;20079;-60
2021/10/07 07:45:15;;;;;;;3.28;1.33;;;22.30;53.70;;;;;;5104212;27;20451;-60
2021/10/07 07:47:44;;;;;;;3.33;1.40;;;22.30;53.90;;;;;;5106453;27;20087;-60
2021/10/07 07:50:10;;;;;;;3.97;1.58;;;22.30;53.70;;;;;;5121932;27;20032;-59
2021/10/07 07:52:37;;;;;;;3.05;1.35;;;22.30;53.80;;;;;;5118749;27;20036;-59
2021/10/07 07:55:04;;;;;;;2.90;1.38;;;22.40;53.90;;;;;;5133701;27;20015;-59
2021/10/07 07:57:29;;;;;;;3.75;1.50;;;22.40;53.70;;;;;;5111829;27;20027;-60
2021/10/07 07:59:55;;;;;;;3.13;1.50;;;22.40;53.70;;;;;;5096673;28;20360;-58
2021/10/07 08:02:20;;;;;;;3.42;1.40;;;22.40;53.70;;;;;;5117746;27;20036;-60
2021/10/07 08:04:46;;;;;;;3.78;1.50;;;22.50;53.70;;;;;;5123332;27;20062;-60
2021/10/07 08:07:13;;;;;;;2.33;1.20;;;22.50;53.80;;;;;;5115828;27;20115;-59
2021/10/07 08:09:43;;;;;;;3.17;1.40;;;22.50;53.70;;;;;;5133610;27;20028;-60
2021/10/07 08:12:13;;;;;;;3.05;1.38;;;22.50;53.70;;;;;;5117371;27;20074;-59
2021/10/07 08:14:47;;;;;;;2.83;1.35;;;22.50;53.60;;;;;;5100827;27;20028;-60
2021/10/07 08:17:14;;;;;;;3.55;1.45;;;22.50;53.60;;;;;;5115653;27;20032;-59
2021/10/07 08:19:41;;;;;;;2.45;1.10;;;22.50;53.70;;;;;;5115612;27;20383;-59
2021/10/07 08:22:08;;;;;;;3.33;1.60;;;22.50;53.60;;;;;;5114576;28;20088;-60
2021/10/07 08:24:34;;;;;;;3.80;1.67;;;22.50;53.60;;;;;;5112543;27;20020;-61
2021/10/07 08:27:00;;;;;;;3.78;1.42;;;22.50;53.60;;;;;;5102440;27;20095;-59
2021/10/07 08:29:26;;;;;;;2.42;1.33;;;22.60;53.60;;;;;;5127991;27;20199;-59
2021/10/07 08:31:51;;;;;;;3.88;1.60;;;22.60;53.60;;;;;;5115142;27;20031;-60
2021/10/07 08:34:17;;;;;;;3.55;1.50;;;22.60;53.60;;;;;;5114241;27;20020;-60
2021/10/07 08:36:43;;;;;;;4.63;1.55;;;22.60;53.50;;;;;;5098271;27;20122;-59
2021/10/07 08:39:10;;;;;;;3.53;1.40;;;22.70;53.50;;;;;;5096958;28;20039;-56
2021/10/07 08:41:37;;;;;;;3.22;1.30;;;22.70;53.50;;;;;;5096519;28;20036;-59
2021/10/07 08:44:03;;;;;;;2.58;1.30;;;22.70;53.50;;;;;;5093831;28;20372;-60
2021/10/07 08:46:29;;;;;;;2.85;1.30;;;22.70;53.50;;;;;;5083789;28;20485;-60
2021/10/07 08:48:56;;;;;;;4.07;1.55;;;22.70;53.50;;;;;;5093742;28;20023;-59
2021/10/07 08:51:21;;;;;;;2.53;1.35;;;22.70;53.50;;;;;;5093367;28;20360;-60
2021/10/07 08:53:47;;;;;;;2.72;1.20;;;22.70;53.60;;;;;;5093608;28;20031;-58
2021/10/07 08:56:13;;;;;;;3.72;1.50;;;22.70;53.50;;;;;;5090360;28;20035;-59
2021/10/07 08:58:39;;;;;;;4.05;1.73;;;22.70;53.50;;;;;;5113376;28;20031;-59
2021/10/07 09:01:05;;;;;;;3.15;1.40;;;22.80;53.50;;;;;;5100962;28;20027;-59
2021/10/07 09:03:38;;;;;;;2.63;1.38;;;22.80;53.40;;;;;;5094984;28;20028;-59
2021/10/07 09:06:14;;;;;;;2.88;1.52;;;22.80;53.40;;;;;;5084136;28;20359;-58
2021/10/07 09:08:45;;;;;;;3.35;1.40;;;22.80;53.40;;;;;;5096473;28;20044;-59
2021/10/07 09:11:27;;;;;;;3.65;1.45;;;22.90;53.40;;;;;;5093397;28;20036;-59
2021/10/07 09:14:04;;;;;;;3.15;1.50;;;22.90;53.40;;;;;;5105797;28;20023;-59
2021/10/07 09:16:45;;;;;;;3.15;1.50;;;22.90;53.40;;;;;;5079308;28;20024;-59
2021/10/07 09:19:14;;;;;;;3.55;1.80;;;22.90;53.40;;;;;;5106235;28;20027;-59
2021/10/07 09:21:40;;;;;;;3.08;1.45;;;22.90;53.40;;;;;;5095040;28;20679;-63
2021/10/07 09:24:34;;;;;;;4.20;1.60;;;22.90;53.40;;;;;;5097665;28;20038;-59
2021/10/07 09:27:13;;;;;;;3.78;1.52;;;22.90;53.30;;;;;;5099457;28;20038;-59
2021/10/07 09:29:51;;;;;;;3.67;1.55;;;22.90;53.30;;;;;;5112173;28;20031;-59
2021/10/07 09:32:29;;;;;;;3.38;1.70;;;22.90;53.30;;;;;;5113709;28;20035;-59
2021/10/07 09:35:00;;;;;;;3.25;1.70;;;23.00;53.40;;;;;;5108748;28;20170;-59
2021/10/07 09:37:37;;;;;;;3.97;1.80;;;22.90;53.40;;;;;;5091062;28;20507;-59
2021/10/07 09:40:15;;;;;;;3.88;1.70;;;22.90;53.40;;;;;;5114663;27;20096;-58
2021/10/07 09:42:43;;;;;;;4.05;1.65;;;22.90;53.30;;;;;;5105294;27;20197;-60
2021/10/07 09:45:16;;;;;;;2.85;1.38;;;23.00;53.40;;;;;;5115097;27;20047;-59
2021/10/07 09:47:43;;;;;;;2.60;1.48;;;23.00;53.40;;;;;;5119141;28;20075;-60
2021/10/07 09:50:27;;;;;;;3.72;1.70;;;23.00;53.30;;;;;;5119747;28;20031;-59
2021/10/07 09:53:09;;;;;;;3.38;1.60;;;23.00;53.20;;;;;;5113241;28;20076;-60
2021/10/07 09:55:44;;;;;;;3.47;1.63;;;23.00;53.20;;;;;;5123528;27;20016;-59
2021/10/07 09:58:15;;;;;;;2.55;1.13;;;23.00;53.20;;;;;;5112446;28;20080;-59
2021/10/07 10:00:47;;;;;;;4.18;1.73;;;23.00;53.20;;;;;;5132135;28;20030;-59
2021/10/07 10:03:14;;;;;;;4.82;1.60;;;23.00;53.10;;;;;;5118369;28;20054;-61
2021/10/07 10:05:41;;;;;;;3.65;1.80;;;23.00;53.10;;;;;;5108944;28;20084;-54
2021/10/07 10:08:09;;;;;;;2.80;1.40;;;23.00;53.20;;;;;;5110654;28;20084;-60
2021/10/07 10:10:36;;;;;;;2.95;1.45;;;23.00;53.20;;;;;;5094326;28;20024;-59
2021/10/07 10:13:03;;;;;;;3.58;1.63;;;23.10;53.30;;;;;;5130063;28;20520;-60
2021/10/07 10:15:29;;;;;;;2.50;1.30;;;23.10;53.20;;;;;;5115801;28;20031;-60
2021/10/07 10:17:55;;;;;;;3.00;1.30;;;23.00;53.20;;;;;;5106573;28;20035;-60
2021/10/07 10:20:31;;;;;;;4.43;1.60;;;23.10;53.20;;;;;;5112751;28;20474;-60
2021/10/07 10:23:09;;;;;;;3.17;1.33;;;23.10;53.10;;;;;;5112663;28;20032;-57
2021/10/07 10:25:55;;;;;;;3.15;1.73;;;23.10;53.10;;;;;;5110476;28;20114;-57
2021/10/07 10:28:38;;;;;;;3.60;1.60;;;23.10;53.10;;;;;;5107860;28;20024;-59
2021/10/07 10:31:10;;;;;;;4.07;1.65;;;23.20;53.00;;;;;;5127660;28;20035;-61
2021/10/07 10:33:38;;;;;;;4.10;1.63;;;23.20;52.90;;;;;;5094746;28;20023;-60
2021/10/07 10:36:25;;;;;;;3.95;1.95;;;23.20;53.00;;;;;;5110435;27;20106;-59
2021/10/07 10:39:13;;;;;;;4.18;1.75;;;23.20;52.90;;;;;;5119973;27;20433;-59
2021/10/07 10:41:48;;;;;;;3.00;1.50;;;23.20;53.00;;;;;;5135106;27;20031;-58
2021/10/07 10:44:33;;;;;;;3.58;1.67;;;23.20;52.70;;;;;;5136966;27;20152;-60
2021/10/07 10:47:08;;;;;;;4.05;1.90;;;23.40;52.60;;;;;;5127922;27;20027;-59
2021/10/07 10:52:22;;;;;;;2.83;1.63;;;23.40;52.50;;;;;;5137014;27;20035;-57
2021/10/07 10:54:50;;;;;;;3.95;1.95;;;23.40;52.60;;;;;;5118535;27;20042;-58
2021/10/07 10:57:32;;;;;;;4.28;1.60;;;23.40;52.60;;;;;;5123572;27;20074;-60
2021/10/07 11:00:28;;;;;;;3.47;1.67;;;23.40;52.50;;;;;;5116660;28;20035;-59
2021/10/07 11:03:12;;;;;;;2.83;1.40;;;23.40;52.50;;;;;;5097613;28;20042;-59
2021/10/07 11:05:55;;;;;;;6.03;1.58;;;23.50;52.50;;;;;;5115198;28;20553;-59
2021/10/07 11:08:22;;;;;;;2.97;1.58;;;23.50;52.40;;;;;;5116647;28;20028;-59
2021/10/07 11:10:54;;;;;;;2.85;1.50;;;23.60;52.10;;;;;;5116115;28;20110;-59
2021/10/07 11:13:22;;;;;;;3.33;1.60;;;23.50;52.20;;;;;;5116349;28;20023;-59
2021/10/07 11:15:53;;;;;;;3.63;1.65;;;23.50;52.30;;;;;;5116646;27;20031;-58
2021/10/07 11:18:19;;;;;;;2.90;1.40;;;23.70;52.00;;;;;;5118232;27;20112;-59
2021/10/07 11:20:45;;;;;;;4.25;1.70;;;23.70;51.90;;;;;;5113753;28;20544;-59
2021/10/07 11:23:15;;;;;;;2.67;1.35;;;23.70;52.00;;;;;;5113869;28;20028;-60
2021/10/07 11:25:47;;;;;;;4.07;1.75;;;23.70;51.90;;;;;;5114108;28;20039;-59
2021/10/07 11:28:13;;;;;;;4.22;2.05;;;23.60;52.20;;;;;;5114114;28;20020;-59
2021/10/07 11:30:41;;;;;;;3.38;1.77;;;23.60;52.30;;;;;;5115292;27;20519;-59
2021/10/07 11:33:07;;;;;;;3.33;1.60;;;23.50;52.40;;;;;;5135434;27;20462;-59
2021/10/07 11:35:34;;;;;;;3.40;1.40;;;23.50;52.30;;;;;;5130776;27;20032;-59
2021/10/07 11:38:03;;;;;;;2.90;1.55;;;23.50;52.50;;;;;;5118124;27;20024;-60
2021/10/07 11:40:47;;;;;;;4.63;1.90;;;23.50;52.50;;;;;;5135335;27;20122;-60
2021/10/07 11:43:16;;;;;;;3.63;1.98;;;23.40;52.70;;;;;;5136276;27;20060;-61
2021/10/07 11:45:45;;;;;;;3.08;1.60;;;23.40;52.70;;;;;;5117575;27;20105;-59
2021/10/07 11:48:12;;;;;;;2.53;1.35;;;23.50;52.40;;;;;;5135479;27;20022;-58
2021/10/07 11:50:51;;;;;;;3.35;1.65;;;23.40;52.60;;;;;;5133919;27;20039;-59
2021/10/07 11:53:28;;;;;;;3.20;1.60;;;23.50;52.50;;;;;;5097168;28;20390;-59
2021/10/07 11:55:54;;;;;;;2.85;1.50;;;23.50;52.40;;;;;;5102377;27;20034;-59
2021/10/07 11:58:19;;;;;;;4.25;2.00;;;23.40;52.60;;;;;;5135714;27;20031;-59
2021/10/07 12:00:48;;;;;;;3.85;1.80;;;23.40;52.60;;;;;;5131195;27;20042;-60
2021/10/07 12:03:23;;;;;;;4.00;1.70;;;23.30;52.70;;;;;;5135729;27;20026;-58
2021/10/07 12:05:55;;;;;;;3.28;1.65;;;23.40;52.70;;;;;;5135043;27;20038;-60
2021/10/07 12:08:23;;;;;;;3.67;1.73;;;23.40;52.70;;;;;;5135650;27;20039;-60
2021/10/07 12:10:53;;;;;;;4.78;2.15;;;23.30;52.90;;;;;;5128996;27;20043;-59
2021/10/07 12:13:24;;;;;;;4.53;1.92;;;23.20;53.00;;;;;;5115187;28;20024;-59
2021/10/07 12:15:54;;;;;;;4.38;2.10;;;23.10;53.00;;;;;;5114958;28;20505;-59
2021/10/07 12:18:23;;;;;;;4.50;2.47;;;23.10;53.20;;;;;;5115158;28;20515;-59
2021/10/07 12:21:00;;;;;;;4.03;2.03;;;23.10;53.10;;;;;;5114877;28;20459;-59
2021/10/07 12:23:26;;;;;;;4.53;2.20;;;23.10;53.10;;;;;;5114894;28;20048;-59
2021/10/07 12:25:58;;;;;;;4.72;1.92;;;23.20;53.10;;;;;;5098966;27;20122;-59
2021/10/07 12:28:24;;;;;;;4.40;1.77;;;23.10;53.10;;;;;;5135342;27;20080;-59
2021/10/07 12:30:59;;;;;;;4.65;1.92;;;23.00;53.10;;;;;;5135075;27;20385;-59
2021/10/07 12:33:28;;;;;;;4.00;2.17;;;23.00;53.10;;;;;;5127817;27;20026;-58
2021/10/07 12:36:09;;;;;;;4.15;2.00;;;23.00;53.10;;;;;;5096566;28;20465;-58
2021/10/07 12:38:51;;;;;;;4.35;2.08;;;23.00;53.20;;;;;;5114610;28;20028;-59
2021/10/07 12:41:17;;;;;;;4.03;1.88;;;22.90;53.20;;;;;;5114501;28;20030;-59
2021/10/07 12:43:54;;;;;;;4.15;2.22;;;22.90;53.20;;;;;;5114332;28;20023;-59
2021/10/07 12:46:21;;;;;;;7.32;2.30;;;22.90;53.30;;;;;;5114713;27;20116;-60
2021/10/07 12:48:58;;;;;;;4.88;2.30;;;22.90;53.30;;;;;;5114493;28;20031;-59
2021/10/07 12:51:32;;;;;;;3.67;1.77;;;22.80;53.30;;;;;;5113976;28;20024;-59
2021/10/07 12:53:57;;;;;;;3.63;1.73;;;22.80;53.20;;;;;;5114365;28;20015;-59
2021/10/07 12:56:27;;;;;;;5.28;2.40;;;22.80;53.30;;;;;;5095559;28;20031;-59
2021/10/07 12:59:01;;;;;;;4.85;2.40;;;22.70;53.30;;;;;;5113310;28;20019;-60